UAL Aberdeen — PBHZ — position and weather

sailwx.info

Track history (hours):
 
Tides and Currents Weather Stations Pressure Air Temp Water Temp Dewpoint Dewpoint Depression Visibility Wind Speed Wind Dir Waves Ship Positions

UAL Aberdeen

Last reported at 2014-Nov-16 00:00 UTC. Time now 2014-Nov-23 09:48 UTC.
Position N 38°06' E 019°36'.

Length 129 m; beam 17 m.

Type: Cargo ship. MMSI: 244093964.

Wind from 230 at 9 knots

Barometer 1015.0 mb
Air temperature 20.0 ° C
Visibility: greater than 10.8 NM
Dewpoint 15.3 ° C

Date/timePositionNaut miles runAvg speedWind from/ knotsBaromVisibWave heightAir tempDewpointWater temp
2014-Nov-16 00:00N 38°06' E 019°36'21511.4 230 / 91015.010.8 20.015.3
2014-Nov-15 05:14N 36°37' E 023°41'913.6
2014-Nov-15 04:33N 36°41' E 023°51'1313.1
2014-Nov-15 03:33N 36°49' E 024°05'1212.5
2014-Nov-15 02:33N 36°56' E 024°18'1312.9
2014-Nov-15 01:32N 37°03' E 024°32'1313.2
2014-Nov-15 00:33N 37°11' E 024°44'1312.8
2014-Nov-14 23:33N 37°19' E 024°56'6 6.0
2014-Nov-14 22:33N 37°25' E 024°59'0 0.0
2014-Nov-14 21:33N 37°25' E 024°59'0 0.0
2014-Nov-14 20:33N 37°25' E 024°59'0 0.0
2014-Nov-14 19:33N 37°25' E 024°59'1 0.7
2014-Nov-14 18:33N 37°25' E 024°60'9 8.8
2014-Nov-14 17:33N 37°33' E 024°57'1312.7
2014-Nov-14 16:31N 37°43' E 024°46'1212.8
2014-Nov-14 15:33N 37°53' E 024°36'1513.4
2014-Nov-14 14:24N 38°07' E 024°44'266 7.2
2014-Nov-13 01:23N 40°51' E 029°16'0 0.0
2014-Nov-13 00:34N 40°51' E 029°16'0 0.0
2014-Nov-12 23:34N 40°51' E 029°16'0 0.0
2014-Nov-12 22:34N 40°51' E 029°16'0 0.0
2014-Nov-12 21:33N 40°51' E 029°16'0 0.0
2014-Nov-12 20:34N 40°51' E 029°16'0 0.0
2014-Nov-12 19:33N 40°51' E 029°16'0 0.0
2014-Nov-12 18:33N 40°51' E 029°16'0 0.0
2014-Nov-12 17:33N 40°51' E 029°16'0 0.0
2014-Nov-12 16:33N 40°51' E 029°16'0 0.0
2014-Nov-12 15:33N 40°51' E 029°16'0 0.0
2014-Nov-12 14:33N 40°51' E 029°16'0 0.0
2014-Nov-12 13:33N 40°51' E 029°16'0 0.0
2014-Nov-12 12:33N 40°51' E 029°16'0 0.0
2014-Nov-12 11:34N 40°51' E 029°16'0 0.0
2014-Nov-12 10:33N 40°51' E 029°16'0 0.0
2014-Nov-12 09:33N 40°51' E 029°16'0 0.0
2014-Nov-12 08:33N 40°51' E 029°16'0 0.0
2014-Nov-12 07:34N 40°51' E 029°16'0 0.0
2014-Nov-12 06:33N 40°51' E 029°16'0 0.0
2014-Nov-12 05:34N 40°51' E 029°16'0 0.0
2014-Nov-12 04:33N 40°51' E 029°16'0 0.0
2014-Nov-12 03:34N 40°51' E 029°16'0 0.0
2014-Nov-12 02:34N 40°51' E 029°16'0 0.0
2014-Nov-12 01:34N 40°51' E 029°16'0 0.0
2014-Nov-12 00:33N 40°51' E 029°16'0 0.0
2014-Nov-11 23:33N 40°51' E 029°16'0 0.0
2014-Nov-11 22:34N 40°51' E 029°16'0 0.0
2014-Nov-11 21:34N 40°51' E 029°16'0 0.0
2014-Nov-11 20:34N 40°51' E 029°16'0 0.0
2014-Nov-11 19:33N 40°51' E 029°16'0 0.0
2014-Nov-11 18:34N 40°51' E 029°16'0 0.0
2014-Nov-11 17:33N 40°51' E 029°16'0 0.0
2014-Nov-11 16:34N 40°51' E 029°16'0 0.0
2014-Nov-11 15:34N 40°51' E 029°16'0 0.0
2014-Nov-11 14:33N 40°51' E 029°16'0 0.0
2014-Nov-11 13:33N 40°51' E 029°16'0 0.0
2014-Nov-11 12:33N 40°51' E 029°16'0 0.0
2014-Nov-11 11:33N 40°51' E 029°16'0 0.0
2014-Nov-11 10:33N 40°51' E 029°16'0 0.0
2014-Nov-11 09:33N 40°51' E 029°16'0 0.0
2014-Nov-11 08:33N 40°51' E 029°16'0 0.0
2014-Nov-11 07:33N 40°51' E 029°16'0 0.0
2014-Nov-11 06:33N 40°51' E 029°16'0 0.0
2014-Nov-11 05:33N 40°51' E 029°16'0 0.0
2014-Nov-11 04:33N 40°51' E 029°16'0 0.0
2014-Nov-11 03:33N 40°51' E 029°16'0 0.0
2014-Nov-11 02:33N 40°51' E 029°16'0 0.0
2014-Nov-11 01:33N 40°51' E 029°16'0 0.0
2014-Nov-11 00:33N 40°51' E 029°16'0 0.0
2014-Nov-10 23:33N 40°51' E 029°16'0 0.0
2014-Nov-10 22:33N 40°51' E 029°16'0 0.0
2014-Nov-10 21:33N 40°51' E 029°16'0 0.0
2014-Nov-10 20:32N 40°51' E 029°16'0 0.0
2014-Nov-10 19:33N 40°51' E 029°16'0 0.0
2014-Nov-10 18:33N 40°51' E 029°16'0 0.0
2014-Nov-10 17:33N 40°51' E 029°16'0 0.0
2014-Nov-10 16:33N 40°51' E 029°16'0 0.0
2014-Nov-10 15:33N 40°51' E 029°16'0 0.0
2014-Nov-10 14:33N 40°51' E 029°16'0 0.0
2014-Nov-10 13:33N 40°51' E 029°16'0 0.0
2014-Nov-10 12:33N 40°51' E 029°16'0 0.0
2014-Nov-10 11:34N 40°51' E 029°16'0 0.0
2014-Nov-10 10:33N 40°51' E 029°16'0 0.0
2014-Nov-10 09:33N 40°51' E 029°16'0 0.0
2014-Nov-10 08:33N 40°51' E 029°16'0 0.0
2014-Nov-10 07:33N 40°51' E 029°16'0 0.0
2014-Nov-10 06:33N 40°51' E 029°16'0 0.0
2014-Nov-10 05:33N 40°51' E 029°16'0 0.0
2014-Nov-10 04:33N 40°51' E 029°16'0 0.0
2014-Nov-10 03:33N 40°51' E 029°16'0 0.0
2014-Nov-10 02:32N 40°51' E 029°16'0 0.0
2014-Nov-10 01:33N 40°51' E 029°16'0 0.0
2014-Nov-10 00:33N 40°51' E 029°16'0 0.0
2014-Nov-09 23:33N 40°51' E 029°16'0 0.0
2014-Nov-09 22:33N 40°51' E 029°16'0 0.0
2014-Nov-09 21:33N 40°51' E 029°16'0 0.0
2014-Nov-09 20:33N 40°51' E 029°16'0 0.0
2014-Nov-09 19:33N 40°51' E 029°16'0 0.0
2014-Nov-09 18:33N 40°51' E 029°16'0 0.0
2014-Nov-09 17:33N 40°51' E 029°16'0 0.0
2014-Nov-09 16:33N 40°51' E 029°16'0 0.0
2014-Nov-09 15:33N 40°51' E 029°16'0 0.0
2014-Nov-09 14:33N 40°51' E 029°16'0 0.0
2014-Nov-09 13:33N 40°51' E 029°16'0 0.0
2014-Nov-09 12:33N 40°51' E 029°16'0 0.0
2014-Nov-09 11:33N 40°51' E 029°16'0 0.0
2014-Nov-09 10:33N 40°51' E 029°16'0 0.0
2014-Nov-09 09:33N 40°51' E 029°16'0 0.0
2014-Nov-09 08:33N 40°51' E 029°16'0 0.0
2014-Nov-09 07:33N 40°51' E 029°16'0 0.0
2014-Nov-09 06:33N 40°51' E 029°16'0 0.0
2014-Nov-09 05:33N 40°51' E 029°16'0 0.0
2014-Nov-09 04:33N 40°51' E 029°16'0 0.0
2014-Nov-09 03:32N 40°51' E 029°16'0 0.0
2014-Nov-09 02:33N 40°51' E 029°16'0 0.0
2014-Nov-09 01:33N 40°51' E 029°16'0 0.0
2014-Nov-09 00:33N 40°51' E 029°16'0 0.0
2014-Nov-08 23:33N 40°51' E 029°16'0 0.0
2014-Nov-08 22:33N 40°51' E 029°16'0 0.0
2014-Nov-08 21:33N 40°51' E 029°16'0 0.0
2014-Nov-08 20:33N 40°51' E 029°16'0 0.0
2014-Nov-08 19:33N 40°51' E 029°16'0 0.0
2014-Nov-08 18:33N 40°51' E 029°16'0 0.0
2014-Nov-08 17:33N 40°51' E 029°16'0 0.0
2014-Nov-08 16:33N 40°51' E 029°16'0 0.0
2014-Nov-08 15:33N 40°51' E 029°16'0 0.0
2014-Nov-08 14:33N 40°51' E 029°16'0 0.0
2014-Nov-08 13:33N 40°51' E 029°16'0 0.0
2014-Nov-08 12:33N 40°51' E 029°16'0 0.0
2014-Nov-08 11:33N 40°51' E 029°16'0 0.0
2014-Nov-08 10:33N 40°51' E 029°16'0 0.0
2014-Nov-08 09:33N 40°51' E 029°16'0 0.0
2014-Nov-08 08:33N 40°51' E 029°16'0 0.0
2014-Nov-08 07:33N 40°51' E 029°16'0 0.0
2014-Nov-08 06:33N 40°51' E 029°16'0 0.0
2014-Nov-08 05:33N 40°51' E 029°16'0 0.0
2014-Nov-08 04:33N 40°51' E 029°16'0 0.0
2014-Nov-08 03:33N 40°51' E 029°16'0 0.0
2014-Nov-08 02:33N 40°51' E 029°16'0 0.0
2014-Nov-08 01:33N 40°51' E 029°16'0 0.0
2014-Nov-08 00:33N 40°51' E 029°16'0 0.0
2014-Nov-07 23:33N 40°51' E 029°16'0 0.0
2014-Nov-07 22:33N 40°51' E 029°16'0 0.0
2014-Nov-07 21:33N 40°51' E 029°16'0 0.0
2014-Nov-07 20:33N 40°51' E 029°16'0 0.0
2014-Nov-07 19:33N 40°51' E 029°16'0 0.0
2014-Nov-07 18:33N 40°51' E 029°16'0 0.0
2014-Nov-07 17:33N 40°51' E 029°16'0 0.0
2014-Nov-07 16:33N 40°51' E 029°16'0 0.0
2014-Nov-07 15:33N 40°51' E 029°16'0 0.0
2014-Nov-07 14:33N 40°51' E 029°16'0 0.0
2014-Nov-07 13:33N 40°51' E 029°16'0 0.0
2014-Nov-07 12:33N 40°51' E 029°16'0 0.0
2014-Nov-07 11:33N 40°51' E 029°16'0 0.0
2014-Nov-07 10:33N 40°51' E 029°16'0 0.0
2014-Nov-07 09:33N 40°51' E 029°16'0 0.0
2014-Nov-07 08:33N 40°51' E 029°16'0 0.0
2014-Nov-07 07:33N 40°51' E 029°16'0 0.0
2014-Nov-07 06:33N 40°51' E 029°16'0 0.0
2014-Nov-07 05:33N 40°51' E 029°16'0 0.0
2014-Nov-07 04:33N 40°51' E 029°16'0 0.0
2014-Nov-07 03:33N 40°51' E 029°16'0 0.0
2014-Nov-07 02:33N 40°51' E 029°16'0 0.0
2014-Nov-07 01:33N 40°51' E 029°16'0 0.0
2014-Nov-07 00:33N 40°51' E 029°16'0 0.0
2014-Nov-06 23:33N 40°51' E 029°16'0 0.0
2014-Nov-06 22:33N 40°51' E 029°16'0 0.0
2014-Nov-06 21:33N 40°51' E 029°16'0 0.0
2014-Nov-06 20:33N 40°51' E 029°16'0 0.0
2014-Nov-06 19:33N 40°51' E 029°16'0 0.0
2014-Nov-06 18:33N 40°51' E 029°16'0 0.0
2014-Nov-06 17:33N 40°51' E 029°16'0 0.0
2014-Nov-06 16:33N 40°51' E 029°16'0 0.0
2014-Nov-06 15:33N 40°51' E 029°16'0 0.0
2014-Nov-06 14:33N 40°51' E 029°16'0 0.0
2014-Nov-06 13:33N 40°51' E 029°16'0 0.0
2014-Nov-06 12:33N 40°51' E 029°16'0 0.0
2014-Nov-06 11:33N 40°51' E 029°16'0 0.0
2014-Nov-06 10:33N 40°51' E 029°16'0 0.0
2014-Nov-06 09:33N 40°51' E 029°16'0 0.0
2014-Nov-06 08:33N 40°51' E 029°16'0 0.0
2014-Nov-06 07:33N 40°51' E 029°16'0 0.0
2014-Nov-06 06:33N 40°51' E 029°16'0 0.0
2014-Nov-06 05:33N 40°51' E 029°16'0 0.0
2014-Nov-06 04:33N 40°51' E 029°16'0 0.0
2014-Nov-06 03:33N 40°51' E 029°16'0 0.0
2014-Nov-06 02:33N 40°51' E 029°16'0 0.0
2014-Nov-06 01:33N 40°51' E 029°16'0 0.0
2014-Nov-06 00:33N 40°51' E 029°16'  
Track history (hours):
 
Tides and Currents Weather Stations Pressure Air Temp Water Temp Dewpoint Dewpoint Depression Visibility Wind Speed Wind Dir Waves Ship Positions

UAL Aberdeen

Last reported at 2014-Nov-16 00:00 UTC. Time now 2014-Nov-23 09:49 UTC.
Position N 38°06' E 019°36'.

Length 129 m; beam 17 m.

Type: Cargo ship. MMSI: 244093964.

Wind from 230 at 9 knots

Barometer 1015.0 mb
Air temperature 20.0 ° C
Visibility: greater than 10.8 NM
Dewpoint 15.3 ° C

Date/timePositionNaut miles runAvg speedWind from/ knotsBaromVisibWave heightAir tempDewpointWater temp
2014-Nov-16 00:00N 38°06' E 019°36'21511.4 230 / 91015.010.8 20.015.3
2014-Nov-15 05:14N 36°37' E 023°41'913.6
2014-Nov-15 04:33N 36°41' E 023°51'1313.1
2014-Nov-15 03:33N 36°49' E 024°05'1212.5
2014-Nov-15 02:33N 36°56' E 024°18'1312.9
2014-Nov-15 01:32N 37°03' E 024°32'1313.2
2014-Nov-15 00:33N 37°11' E 024°44'1312.8
2014-Nov-14 23:33N 37°19' E 024°56'6 6.0
2014-Nov-14 22:33N 37°25' E 024°59'0 0.0
2014-Nov-14 21:33N 37°25' E 024°59'0 0.0
2014-Nov-14 20:33N 37°25' E 024°59'0 0.0
2014-Nov-14 19:33N 37°25' E 024°59'1 0.7
2014-Nov-14 18:33N 37°25' E 024°60'9 8.8
2014-Nov-14 17:33N 37°33' E 024°57'1312.7
2014-Nov-14 16:31N 37°43' E 024°46'1212.8
2014-Nov-14 15:33N 37°53' E 024°36'1513.4
2014-Nov-14 14:24N 38°07' E 024°44'266 7.2
2014-Nov-13 01:23N 40°51' E 029°16'0 0.0
2014-Nov-13 00:34N 40°51' E 029°16'0 0.0
2014-Nov-12 23:34N 40°51' E 029°16'0 0.0
2014-Nov-12 22:34N 40°51' E 029°16'0 0.0
2014-Nov-12 21:33N 40°51' E 029°16'0 0.0
2014-Nov-12 20:34N 40°51' E 029°16'0 0.0
2014-Nov-12 19:33N 40°51' E 029°16'0 0.0
2014-Nov-12 18:33N 40°51' E 029°16'0 0.0
2014-Nov-12 17:33N 40°51' E 029°16'0 0.0
2014-Nov-12 16:33N 40°51' E 029°16'0 0.0
2014-Nov-12 15:33N 40°51' E 029°16'0 0.0
2014-Nov-12 14:33N 40°51' E 029°16'0 0.0
2014-Nov-12 13:33N 40°51' E 029°16'0 0.0
2014-Nov-12 12:33N 40°51' E 029°16'0 0.0
2014-Nov-12 11:34N 40°51' E 029°16'0 0.0
2014-Nov-12 10:33N 40°51' E 029°16'0 0.0
2014-Nov-12 09:33N 40°51' E 029°16'0 0.0
2014-Nov-12 08:33N 40°51' E 029°16'0 0.0
2014-Nov-12 07:34N 40°51' E 029°16'0 0.0
2014-Nov-12 06:33N 40°51' E 029°16'0 0.0
2014-Nov-12 05:34N 40°51' E 029°16'0 0.0
2014-Nov-12 04:33N 40°51' E 029°16'0 0.0
2014-Nov-12 03:34N 40°51' E 029°16'0 0.0
2014-Nov-12 02:34N 40°51' E 029°16'0 0.0
2014-Nov-12 01:34N 40°51' E 029°16'0 0.0
2014-Nov-12 00:33N 40°51' E 029°16'0 0.0
2014-Nov-11 23:33N 40°51' E 029°16'0 0.0
2014-Nov-11 22:34N 40°51' E 029°16'0 0.0
2014-Nov-11 21:34N 40°51' E 029°16'0 0.0
2014-Nov-11 20:34N 40°51' E 029°16'0 0.0
2014-Nov-11 19:33N 40°51' E 029°16'0 0.0
2014-Nov-11 18:34N 40°51' E 029°16'0 0.0
2014-Nov-11 17:33N 40°51' E 029°16'0 0.0
2014-Nov-11 16:34N 40°51' E 029°16'0 0.0
2014-Nov-11 15:34N 40°51' E 029°16'0 0.0
2014-Nov-11 14:33N 40°51' E 029°16'0 0.0
2014-Nov-11 13:33N 40°51' E 029°16'0 0.0
2014-Nov-11 12:33N 40°51' E 029°16'0 0.0
2014-Nov-11 11:33N 40°51' E 029°16'0 0.0
2014-Nov-11 10:33N 40°51' E 029°16'0 0.0
2014-Nov-11 09:33N 40°51' E 029°16'0 0.0
2014-Nov-11 08:33N 40°51' E 029°16'0 0.0
2014-Nov-11 07:33N 40°51' E 029°16'0 0.0
2014-Nov-11 06:33N 40°51' E 029°16'0 0.0
2014-Nov-11 05:33N 40°51' E 029°16'0 0.0
2014-Nov-11 04:33N 40°51' E 029°16'0 0.0
2014-Nov-11 03:33N 40°51' E 029°16'0 0.0
2014-Nov-11 02:33N 40°51' E 029°16'0 0.0
2014-Nov-11 01:33N 40°51' E 029°16'0 0.0
2014-Nov-11 00:33N 40°51' E 029°16'0 0.0
2014-Nov-10 23:33N 40°51' E 029°16'0 0.0
2014-Nov-10 22:33N 40°51' E 029°16'0 0.0
2014-Nov-10 21:33N 40°51' E 029°16'0 0.0
2014-Nov-10 20:32N 40°51' E 029°16'0 0.0
2014-Nov-10 19:33N 40°51' E 029°16'0 0.0
2014-Nov-10 18:33N 40°51' E 029°16'0 0.0
2014-Nov-10 17:33N 40°51' E 029°16'0 0.0
2014-Nov-10 16:33N 40°51' E 029°16'0 0.0
2014-Nov-10 15:33N 40°51' E 029°16'0 0.0
2014-Nov-10 14:33N 40°51' E 029°16'0 0.0
2014-Nov-10 13:33N 40°51' E 029°16'0 0.0
2014-Nov-10 12:33N 40°51' E 029°16'0 0.0
2014-Nov-10 11:34N 40°51' E 029°16'0 0.0
2014-Nov-10 10:33N 40°51' E 029°16'0 0.0
2014-Nov-10 09:33N 40°51' E 029°16'0 0.0
2014-Nov-10 08:33N 40°51' E 029°16'0 0.0
2014-Nov-10 07:33N 40°51' E 029°16'0 0.0
2014-Nov-10 06:33N 40°51' E 029°16'0 0.0
2014-Nov-10 05:33N 40°51' E 029°16'0 0.0
2014-Nov-10 04:33N 40°51' E 029°16'0 0.0
2014-Nov-10 03:33N 40°51' E 029°16'0 0.0
2014-Nov-10 02:32N 40°51' E 029°16'0 0.0
2014-Nov-10 01:33N 40°51' E 029°16'0 0.0
2014-Nov-10 00:33N 40°51' E 029°16'0 0.0
2014-Nov-09 23:33N 40°51' E 029°16'0 0.0
2014-Nov-09 22:33N 40°51' E 029°16'0 0.0
2014-Nov-09 21:33N 40°51' E 029°16'0 0.0
2014-Nov-09 20:33N 40°51' E 029°16'0 0.0
2014-Nov-09 19:33N 40°51' E 029°16'0 0.0
2014-Nov-09 18:33N 40°51' E 029°16'0 0.0
2014-Nov-09 17:33N 40°51' E 029°16'0 0.0
2014-Nov-09 16:33N 40°51' E 029°16'0 0.0
2014-Nov-09 15:33N 40°51' E 029°16'0 0.0
2014-Nov-09 14:33N 40°51' E 029°16'0 0.0
2014-Nov-09 13:33N 40°51' E 029°16'0 0.0
2014-Nov-09 12:33N 40°51' E 029°16'0 0.0
2014-Nov-09 11:33N 40°51' E 029°16'0 0.0
2014-Nov-09 10:33N 40°51' E 029°16'0 0.0
2014-Nov-09 09:33N 40°51' E 029°16'0 0.0
2014-Nov-09 08:33N 40°51' E 029°16'0 0.0
2014-Nov-09 07:33N 40°51' E 029°16'0 0.0
2014-Nov-09 06:33N 40°51' E 029°16'0 0.0
2014-Nov-09 05:33N 40°51' E 029°16'0 0.0
2014-Nov-09 04:33N 40°51' E 029°16'0 0.0
2014-Nov-09 03:32N 40°51' E 029°16'0 0.0
2014-Nov-09 02:33N 40°51' E 029°16'0 0.0
2014-Nov-09 01:33N 40°51' E 029°16'0 0.0
2014-Nov-09 00:33N 40°51' E 029°16'0 0.0
2014-Nov-08 23:33N 40°51' E 029°16'0 0.0
2014-Nov-08 22:33N 40°51' E 029°16'0 0.0
2014-Nov-08 21:33N 40°51' E 029°16'0 0.0
2014-Nov-08 20:33N 40°51' E 029°16'0 0.0
2014-Nov-08 19:33N 40°51' E 029°16'0 0.0
2014-Nov-08 18:33N 40°51' E 029°16'0 0.0
2014-Nov-08 17:33N 40°51' E 029°16'0 0.0
2014-Nov-08 16:33N 40°51' E 029°16'0 0.0
2014-Nov-08 15:33N 40°51' E 029°16'0 0.0
2014-Nov-08 14:33N 40°51' E 029°16'0 0.0
2014-Nov-08 13:33N 40°51' E 029°16'0 0.0
2014-Nov-08 12:33N 40°51' E 029°16'0 0.0
2014-Nov-08 11:33N 40°51' E 029°16'0 0.0
2014-Nov-08 10:33N 40°51' E 029°16'0 0.0
2014-Nov-08 09:33N 40°51' E 029°16'0 0.0
2014-Nov-08 08:33N 40°51' E 029°16'0 0.0
2014-Nov-08 07:33N 40°51' E 029°16'0 0.0
2014-Nov-08 06:33N 40°51' E 029°16'0 0.0
2014-Nov-08 05:33N 40°51' E 029°16'0 0.0
2014-Nov-08 04:33N 40°51' E 029°16'0 0.0
2014-Nov-08 03:33N 40°51' E 029°16'0 0.0
2014-Nov-08 02:33N 40°51' E 029°16'0 0.0
2014-Nov-08 01:33N 40°51' E 029°16'0 0.0
2014-Nov-08 00:33N 40°51' E 029°16'0 0.0
2014-Nov-07 23:33N 40°51' E 029°16'0 0.0
2014-Nov-07 22:33N 40°51' E 029°16'0 0.0
2014-Nov-07 21:33N 40°51' E 029°16'0 0.0
2014-Nov-07 20:33N 40°51' E 029°16'0 0.0
2014-Nov-07 19:33N 40°51' E 029°16'0 0.0
2014-Nov-07 18:33N 40°51' E 029°16'0 0.0
2014-Nov-07 17:33N 40°51' E 029°16'0 0.0
2014-Nov-07 16:33N 40°51' E 029°16'0 0.0
2014-Nov-07 15:33N 40°51' E 029°16'0 0.0
2014-Nov-07 14:33N 40°51' E 029°16'0 0.0
2014-Nov-07 13:33N 40°51' E 029°16'0 0.0
2014-Nov-07 12:33N 40°51' E 029°16'0 0.0
2014-Nov-07 11:33N 40°51' E 029°16'0 0.0
2014-Nov-07 10:33N 40°51' E 029°16'0 0.0
2014-Nov-07 09:33N 40°51' E 029°16'0 0.0
2014-Nov-07 08:33N 40°51' E 029°16'0 0.0
2014-Nov-07 07:33N 40°51' E 029°16'0 0.0
2014-Nov-07 06:33N 40°51' E 029°16'0 0.0
2014-Nov-07 05:33N 40°51' E 029°16'0 0.0
2014-Nov-07 04:33N 40°51' E 029°16'0 0.0
2014-Nov-07 03:33N 40°51' E 029°16'0 0.0
2014-Nov-07 02:33N 40°51' E 029°16'0 0.0
2014-Nov-07 01:33N 40°51' E 029°16'0 0.0
2014-Nov-07 00:33N 40°51' E 029°16'0 0.0
2014-Nov-06 23:33N 40°51' E 029°16'0 0.0
2014-Nov-06 22:33N 40°51' E 029°16'0 0.0
2014-Nov-06 21:33N 40°51' E 029°16'0 0.0
2014-Nov-06 20:33N 40°51' E 029°16'0 0.0
2014-Nov-06 19:33N 40°51' E 029°16'0 0.0
2014-Nov-06 18:33N 40°51' E 029°16'0 0.0
2014-Nov-06 17:33N 40°51' E 029°16'0 0.0
2014-Nov-06 16:33N 40°51' E 029°16'0 0.0
2014-Nov-06 15:33N 40°51' E 029°16'0 0.0
2014-Nov-06 14:33N 40°51' E 029°16'0 0.0
2014-Nov-06 13:33N 40°51' E 029°16'0 0.0
2014-Nov-06 12:33N 40°51' E 029°16'0 0.0
2014-Nov-06 11:33N 40°51' E 029°16'0 0.0
2014-Nov-06 10:33N 40°51' E 029°16'0 0.0
2014-Nov-06 09:33N 40°51' E 029°16'0 0.0
2014-Nov-06 08:33N 40°51' E 029°16'0 0.0
2014-Nov-06 07:33N 40°51' E 029°16'0 0.0
2014-Nov-06 06:33N 40°51' E 029°16'0 0.0
2014-Nov-06 05:33N 40°51' E 029°16'0 0.0
2014-Nov-06 04:33N 40°51' E 029°16'0 0.0
2014-Nov-06 03:33N 40°51' E 029°16'0 0.0
2014-Nov-06 02:33N 40°51' E 029°16'0 0.0
2014-Nov-06 01:33N 40°51' E 029°16'0 0.0
2014-Nov-06 00:33N 40°51' E 029°16'  

Dump ship's entire track history